メインページ
METAR-TAF:

METAR-TAF

空港 :

ポートオブスペイン, トリニダード島, トリニダード・トバゴ

緯度: 10-37N, 経度: 061-21W, 海抜: 12m

現時点の気象観測

当レポートは1時間13分前の19:00(UTC)に作成
東/南東の風 12kt
気温 29°C
湿度 74%
気圧 1010 hPa
視程10km以上
高度2200ftの雲は散在している
高度4500ftの雲は散在している
弱いにわか雨

METAR: TTPP 161900Z 11012KT 9999 -SHRA SCT022 SCT045 29/24 Q1010 NOSIG

時間: 16:13 (20:13 UTC)

予報

当レポートは4時間13分前の16:00(UTC)に作成
予報は16日の 18時(UTC)から 17日の 18時(UTC)まで有効
の風 15kt
視程10km以上
高度1800ftの雲は散在している
16日の 18時(UTC)から 16日の 21時(UTC)まで一時的に
視程: 8000m
高度1200ftの雲はほとんどない, 積乱雲.
高度1500ftの雲は散在している
17日の 00時(UTC)から 17日の 02時(UTC)まで徐々に
の風 5kt
高度1500ftの雲はほとんどない
確率 30% :
17日の 08時(UTC)から 17日の 12時(UTC)まで一時的に
視程: 5000m
高度1200ftの雲はほとんどない, 塔状積雲.
高度1500ftの雲は散在している
にわか雨
17日の 11時(UTC)から 17日の 13時(UTC)まで徐々に
の風 15kt
高度1800ftの雲は散在している

TAF: TTPP 161600Z 1618/1718 10015KT 9999 SCT018 TEMPO 1618/1621 8000 SHRA/VCSH FEW012CB SCT015 BECMG 1700/1702 09005KT FEW015 PROB30 TEMPO 1708/1712 5000 SHRA FEW012TCU SCT015 BECMG 1711/1713 09015KT SCT018

4,000以上の空港の気象観測と天気予報(METAR報とTAF報)

利用可能な観測所は地図上に黄色い丸と赤い丸で示す。

丸の上にカーソルを重ねると観測所名を参照できる。

次にクリックすると気象観測と天気予報を参照できる。

マップの切り替え:黒色「×」印の緑ボタンをクリックして拡大、「-」印の緑ボタンをクリックして縮小、緑色の三角印をクリックして隣りの地図に切り替え


METAR-TAF: